Time;durP1;ratioP1;P1;durP2;ratioP2;P2;SDS_P1;SDS_P2;PMS_P1;PMS_P2;Temp;Humidity;BMP_temperature;BMP_pressure;BME280_temperature;BME280_humidity;BME280_pressure;Samples;Min_cycle;Max_cycle;Signal;HPM_P1;HPM_P2
2022/03/06 09:06:20;;;;;;;14.23;10.60;;;3.20;99.90;;;;;;5091120;28;20540;-76
2022/03/06 09:08:46;;;;;;;15.77;10.27;;;3.40;99.90;;;;;;5091361;28;20178;-76
2022/03/06 09:11:11;;;;;;;15.68;10.48;;;3.50;99.90;;;;;;5089783;28;20288;-76
2022/03/06 09:13:37;;;;;;;16.27;10.57;;;3.60;99.90;;;;;;5090774;28;20163;-76
2022/03/06 09:16:03;;;;;;;15.00;10.10;;;3.80;99.90;;;;;;5090746;28;20175;-76
2022/03/06 09:18:29;;;;;;;16.40;9.68;;;3.90;99.90;;;;;;5090745;28;20168;-74
2022/03/06 09:20:55;;;;;;;13.95;9.75;;;4.00;99.90;;;;;;5089292;28;20174;-74
2022/03/06 09:23:21;;;;;;;17.75;10.10;;;4.10;99.90;;;;;;5089690;28;20520;-72
2022/03/06 09:25:46;;;;;;;13.90;10.00;;;4.20;99.90;;;;;;5090448;28;20361;-73
2022/03/06 09:28:12;;;;;;;12.40;10.02;;;4.30;99.90;;;;;;5090764;28;20167;-72
2022/03/06 09:30:38;;;;;;;12.32;9.73;;;4.30;99.90;;;;;;5090191;28;20520;-74
2022/03/06 09:33:05;;;;;;;12.07;9.05;;;4.40;99.90;;;;;;5090410;28;20187;-72
2022/03/06 09:35:31;;;;;;;13.98;10.00;;;4.50;99.90;;;;;;5090343;28;20660;-72
2022/03/06 09:37:56;;;;;;;11.25;8.93;;;4.70;99.90;;;;;;5090303;28;20195;-72
2022/03/06 09:40:22;;;;;;;13.27;8.68;;;4.80;99.90;;;;;;5090353;28;20182;-72
2022/03/06 09:42:48;;;;;;;15.35;9.88;;;4.80;99.90;;;;;;5090224;28;20179;-72
2022/03/06 09:45:15;;;;;;;14.35;9.40;;;4.90;99.90;;;;;;5090177;28;20215;-72
2022/03/06 09:47:42;;;;;;;13.73;8.38;;;4.90;99.90;;;;;;5090098;28;20164;-72
2022/03/06 09:50:10;;;;;;;13.77;9.50;;;4.90;99.90;;;;;;5090087;28;20692;-72
2022/03/06 09:52:35;;;;;;;12.45;10.23;;;4.90;99.90;;;;;;5088814;28;20195;-72
2022/03/06 09:55:02;;;;;;;17.00;10.10;;;4.90;99.90;;;;;;5090023;28;20586;-72
2022/03/06 09:57:28;;;;;;;15.65;10.05;;;5.00;99.90;;;;;;5089810;28;20633;-74
2022/03/06 09:59:53;;;;;;;12.13;8.90;;;5.00;99.90;;;;;;5089908;28;20171;-74
2022/03/06 10:02:19;;;;;;;13.70;9.02;;;5.00;99.90;;;;;;5089860;28;20168;-74
2022/03/06 10:04:48;;;;;;;16.63;10.63;;;5.00;99.90;;;;;;5089563;28;20224;-74
2022/03/06 10:07:19;;;;;;;12.88;10.10;;;5.00;99.90;;;;;;5089810;28;20179;-73
2022/03/06 10:09:49;;;;;;;14.35;9.50;;;4.90;99.90;;;;;;5089797;28;20156;-73
2022/03/06 10:12:23;;;;;;;15.30;9.18;;;5.00;99.90;;;;;;5089653;28;20644;-73
2022/03/06 10:14:50;;;;;;;15.15;10.45;;;4.90;99.90;;;;;;5089651;28;20172;-73
2022/03/06 10:17:18;;;;;;;18.13;10.68;;;4.80;99.90;;;;;;5078524;28;20213;-73
2022/03/06 10:19:54;;;;;;;13.10;9.25;;;4.80;99.90;;;;;;5076046;28;20164;-73
2022/03/06 10:22:21;;;;;;;14.18;9.88;;;4.60;99.90;;;;;;5076073;28;20353;-73
2022/03/06 10:24:51;;;;;;;16.98;10.18;;;4.50;99.90;;;;;;5074727;28;20210;-73
2022/03/06 10:27:37;;;;;;;12.35;9.50;;;4.40;99.90;;;;;;5074670;28;20200;-73
2022/03/06 10:30:21;;;;;;;13.43;9.20;;;4.30;99.90;;;;;;5075793;28;20191;-73
2022/03/06 10:32:46;;;;;;;14.82;10.13;;;4.20;99.90;;;;;;5074586;28;20168;-73
2022/03/06 10:35:12;;;;;;;13.63;9.52;;;4.10;99.90;;;;;;5075770;28;20222;-73
2022/03/06 10:37:37;;;;;;;15.02;9.65;;;4.10;99.90;;;;;;5075679;28;20183;-73
2022/03/06 10:40:03;;;;;;;18.08;10.02;;;4.10;99.90;;;;;;5075667;28;20199;-73
2022/03/06 10:42:29;;;;;;;13.23;9.20;;;4.20;99.90;;;;;;5075687;28;20169;-73
2022/03/06 10:44:54;;;;;;;14.23;9.43;;;4.20;99.90;;;;;;5075538;28;20196;-73
2022/03/06 10:47:20;;;;;;;19.55;9.95;;;4.30;99.90;;;;;;5075593;28;20173;-73
2022/03/06 10:50:05;;;;;;;17.02;9.90;;;4.30;99.90;;;;;;5075518;28;20230;-73
2022/03/06 10:52:41;;;;;;;15.38;9.70;;;4.20;99.90;;;;;;5074157;28;20172;-73
2022/03/06 10:55:07;;;;;;;14.88;10.30;;;4.20;99.90;;;;;;5075474;28;20163;-73
2022/03/06 10:57:32;;;;;;;14.13;9.02;;;4.20;99.90;;;;;;5075341;28;20218;-73
2022/03/06 10:59:59;;;;;;;11.95;9.75;;;4.20;99.90;;;;;;5075286;28;20173;-73
2022/03/06 11:02:26;;;;;;;13.32;8.93;;;4.10;99.90;;;;;;5075289;28;20165;-73
2022/03/06 11:04:53;;;;;;;16.33;10.65;;;4.20;99.90;;;;;;5075022;28;20389;-73
2022/03/06 11:07:20;;;;;;;12.60;9.38;;;4.20;99.90;;;;;;5073940;28;20156;-73
2022/03/06 11:09:46;;;;;;;17.88;10.60;;;4.20;99.90;;;;;;5075107;28;20165;-73
2022/03/06 11:12:13;;;;;;;16.02;10.38;;;4.20;99.90;;;;;;5075147;28;20164;-73
2022/03/06 11:14:40;;;;;;;19.98;10.25;;;4.30;99.90;;;;;;5075058;28;20173;-73
2022/03/06 11:17:06;;;;;;;16.80;10.82;;;4.30;99.90;;;;;;5075011;28;20172;-73
2022/03/06 11:19:33;;;;;;;14.25;10.30;;;4.30;99.90;;;;;;5074928;28;20191;-73
2022/03/06 11:22:08;;;;;;;16.42;10.57;;;4.30;99.90;;;;;;5074948;28;20179;-73
2022/03/06 11:24:36;;;;;;;19.85;11.23;;;4.30;99.90;;;;;;5074812;28;20201;-73
2022/03/06 11:27:20;;;;;;;13.88;10.60;;;4.30;99.90;;;;;;5074688;28;20312;-73
2022/03/06 11:30:04;;;;;;;14.73;10.30;;;4.40;99.90;;;;;;5073752;28;20235;-73
2022/03/06 11:32:33;;;;;;;17.20;10.23;;;4.40;99.90;;;;;;5074417;28;20168;-73
2022/03/06 11:35:09;;;;;;;13.98;9.23;;;4.50;99.90;;;;;;5073143;28;20175;-73
2022/03/06 11:37:51;;;;;;;15.23;9.98;;;4.60;99.90;;;;;;5074361;28;20245;-74
2022/03/06 11:40:37;;;;;;;15.88;9.65;;;4.60;99.90;;;;;;5074473;28;20217;-73
2022/03/06 11:43:04;;;;;;;14.02;10.10;;;4.70;99.90;;;;;;5074433;28;20531;-73
2022/03/06 11:46:01;;;;;;;14.32;9.70;;;4.80;99.90;;;;;;5074161;28;20196;-73
2022/03/06 11:48:32;;;;;;;12.43;9.02;;;4.80;99.90;;;;;;5074343;28;20172;-73
2022/03/06 11:51:20;;;;;;;13.80;9.73;;;4.90;99.90;;;;;;5074043;28;20168;-73
2022/03/06 11:54:03;;;;;;;12.93;8.63;;;5.00;99.90;;;;;;5074274;28;20168;-73
2022/03/06 11:56:34;;;;;;;15.00;10.48;;;5.00;99.90;;;;;;5074194;28;20164;-73
2022/03/06 11:59:10;;;;;;;14.88;9.27;;;5.00;99.90;;;;;;5074119;28;20248;-73
2022/03/06 12:01:40;;;;;;;14.55;9.48;;;5.00;99.90;;;;;;5073996;28;20520;-73
2022/03/06 12:04:14;;;;;;;13.23;9.15;;;5.00;99.90;;;;;;5073864;28;20214;-73
2022/03/06 12:06:45;;;;;;;10.07;8.68;;;5.00;99.90;;;;;;5074064;28;20282;-73
2022/03/06 12:09:25;;;;;;;14.73;10.10;;;5.00;99.90;;;;;;5073978;28;20251;-73
2022/03/06 12:11:53;;;;;;;11.80;8.55;;;5.00;99.90;;;;;;5073727;28;20171;-73
2022/03/06 12:14:21;;;;;;;10.40;8.80;;;5.00;99.90;;;;;;5073847;28;20176;-73
2022/03/06 12:17:11;;;;;;;10.25;8.38;;;5.00;99.90;;;;;;5073798;28;20195;-73
2022/03/06 12:19:42;;;;;;;11.32;9.02;;;5.00;99.90;;;;;;5073801;28;20203;-73
2022/03/06 12:22:15;;;;;;;11.73;9.20;;;4.90;99.90;;;;;;5073522;28;20218;-73
2022/03/06 12:24:43;;;;;;;11.70;8.90;;;4.90;99.90;;;;;;5073628;28;20257;-73
2022/03/06 12:27:14;;;;;;;10.15;8.88;;;5.00;99.90;;;;;;5072327;28;20195;-73
2022/03/06 12:29:48;;;;;;;12.57;8.65;;;5.10;99.90;;;;;;5073550;28;20522;-73
2022/03/06 12:32:26;;;;;;;9.00;8.10;;;5.30;99.90;;;;;;5073607;28;20164;-73
2022/03/06 12:35:08;;;;;;;12.50;8.50;;;5.40;99.90;;;;;;5073548;28;20612;-73
2022/03/06 12:37:34;;;;;;;11.73;8.40;;;5.40;99.90;;;;;;5073646;28;20199;-73
2022/03/06 12:40:02;;;;;;;10.45;8.55;;;5.30;99.90;;;;;;5072102;28;20641;-73
2022/03/06 12:42:31;;;;;;;12.45;9.35;;;5.30;99.90;;;;;;5073496;28;20669;-73
2022/03/06 12:44:59;;;;;;;10.27;9.20;;;5.30;99.90;;;;;;5073346;28;20189;-73
2022/03/06 12:47:26;;;;;;;12.63;9.27;;;5.30;99.90;;;;;;5073413;28;20633;-73
2022/03/06 12:49:53;;;;;;;11.07;8.55;;;5.30;99.90;;;;;;5073434;28;20172;-73
2022/03/06 12:52:24;;;;;;;10.48;9.27;;;5.40;99.90;;;;;;5073401;28;20577;-73
2022/03/06 12:54:50;;;;;;;13.32;8.77;;;5.50;99.90;;;;;;5073387;28;20172;-73
2022/03/06 12:57:17;;;;;;;10.18;8.80;;;5.50;99.90;;;;;;5073206;28;20180;-73
2022/03/06 12:59:46;;;;;;;9.48;8.48;;;5.40;99.90;;;;;;5073100;28;20161;-73
2022/03/06 13:02:15;;;;;;;11.95;8.73;;;5.50;99.90;;;;;;5073154;28;20221;-73
2022/03/06 13:04:50;;;;;;;9.70;8.70;;;5.50;99.90;;;;;;5073048;28;20299;-73
2022/03/06 13:07:17;;;;;;;13.50;9.73;;;5.50;99.90;;;;;;5073327;28;20164;-73
2022/03/06 13:09:42;;;;;;;11.75;9.02;;;5.70;99.90;;;;;;5073192;28;20259;-73
2022/03/06 13:12:08;;;;;;;9.93;8.77;;;5.90;99.90;;;;;;5071746;28;20200;-73
2022/03/06 13:14:38;;;;;;;12.35;8.57;;;6.00;99.90;;;;;;5071887;28;20701;-73
2022/03/06 13:17:17;;;;;;;10.43;8.48;;;6.20;99.90;;;;;;5073109;28;20521;-73
2022/03/06 13:19:48;;;;;;;8.57;7.78;;;6.40;99.90;;;;;;5072975;28;20172;-73
2022/03/06 13:22:25;;;;;;;10.32;9.27;;;6.50;99.90;;;;;;5073067;28;20168;-73
2022/03/06 13:24:55;;;;;;;12.18;9.30;;;5.80;99.90;;;;;;5073159;28;20595;-73
2022/03/06 13:27:41;;;;;;;9.65;8.20;;;6.70;99.90;;;;;;5073008;28;20169;-73
2022/03/06 13:30:11;;;;;;;10.05;8.95;;;6.80;99.90;;;;;;5072994;28;20164;-73
2022/03/06 13:32:49;;;;;;;9.35;8.40;;;6.90;99.90;;;;;;5071669;28;20259;-73
2022/03/06 13:35:34;;;;;;;9.63;8.40;;;6.70;99.90;;;;;;5072937;28;20172;-73
2022/03/06 13:38:09;;;;;;;12.63;9.07;;;6.60;99.90;;;;;;5072744;28;20682;-73
2022/03/06 13:40:42;;;;;;;12.20;9.48;;;7.10;99.90;;;;;;5072846;28;20180;-73
2022/03/06 13:43:08;;;;;;;13.48;9.88;;;6.60;99.90;;;;;;5072944;28;20191;-73
2022/03/06 13:45:35;;;;;;;12.55;9.30;;;6.80;99.90;;;;;;5072664;28;20192;-73
2022/03/06 13:48:07;;;;;;;10.95;9.52;;;6.80;99.90;;;;;;5072835;28;20169;-73
2022/03/06 13:50:39;;;;;;;10.63;9.60;;;6.90;99.90;;;;;;5072764;28;20171;-73
2022/03/06 13:53:07;;;;;;;12.52;10.07;;;6.90;99.90;;;;;;5076326;28;20247;-73
2022/03/06 13:55:36;;;;;;;11.98;10.23;;;6.90;99.90;;;;;;5076519;28;20178;-73
2022/03/06 13:58:08;;;;;;;15.45;10.93;;;6.90;99.90;;;;;;5076453;28;20196;-73
2022/03/06 14:00:43;;;;;;;14.55;10.57;;;6.80;99.90;;;;;;5076449;28;20247;-73
2022/03/06 14:03:26;;;;;;;11.52;10.40;;;7.00;99.90;;;;;;5076477;28;20168;-73
2022/03/06 14:05:53;;;;;;;14.60;10.65;;;7.10;99.90;;;;;;5075875;28;20311;-73
2022/03/06 14:08:21;;;;;;;11.18;10.02;;;7.20;99.90;;;;;;5075045;28;20260;-73
2022/03/06 14:10:52;;;;;;;16.27;11.40;;;7.20;99.90;;;;;;5076244;28;20175;-73
2022/03/06 14:13:19;;;;;;;12.18;10.45;;;7.00;99.90;;;;;;5076189;28;20686;-73
2022/03/06 14:15:45;;;;;;;15.65;11.60;;;6.80;99.90;;;;;;5076081;28;20504;-73
2022/03/06 14:18:10;;;;;;;13.32;11.13;;;6.40;99.90;;;;;;5076137;28;20196;-73
2022/03/06 14:20:45;;;;;;;13.65;11.00;;;6.40;99.90;;;;;;5076019;28;20305;-73
2022/03/06 14:23:11;;;;;;;11.90;10.25;;;6.50;99.90;;;;;;5076098;28;20186;-73
2022/03/06 14:25:37;;;;;;;11.52;10.15;;;6.60;99.90;;;;;;5075695;28;20204;-73
2022/03/06 14:28:03;;;;;;;15.05;11.45;;;6.80;99.90;;;;;;5075919;28;20203;-73
2022/03/06 14:30:28;;;;;;;13.90;10.70;;;7.00;99.90;;;;;;5074614;28;20175;-73
2022/03/06 14:32:54;;;;;;;13.45;10.30;;;7.00;99.90;;;;;;5075904;28;20532;-73
2022/03/06 14:35:20;;;;;;;13.68;11.05;;;7.10;99.90;;;;;;5075822;28;20252;-73
2022/03/06 14:37:45;;;;;;;12.90;11.05;;;7.10;99.90;;;;;;5074503;28;20172;-73
2022/03/06 14:40:11;;;;;;;11.23;10.07;;;7.00;99.90;;;;;;5075757;28;20164;-73
2022/03/06 14:42:36;;;;;;;12.40;10.50;;;7.00;99.90;;;;;;5075616;28;20175;-73
2022/03/06 14:45:02;;;;;;;13.35;10.85;;;6.90;99.90;;;;;;5075628;28;20224;-72
2022/03/06 14:47:28;;;;;;;17.20;11.07;;;6.80;99.90;;;;;;5075597;28;20534;-73
2022/03/06 14:49:53;;;;;;;11.95;10.73;;;6.80;99.90;;;;;;5075394;28;20164;-73
2022/03/06 14:52:19;;;;;;;12.88;10.98;;;6.90;99.90;;;;;;5075446;28;20164;-73
2022/03/06 14:54:45;;;;;;;12.18;10.05;;;7.00;99.90;;;;;;5074102;28;20179;-73
2022/03/06 14:57:10;;;;;;;10.95;9.82;;;7.30;99.90;;;;;;5075634;28;20171;-73
2022/03/06 14:59:36;;;;;;;13.35;9.85;;;7.40;99.90;;;;;;5073988;28;20233;-73
2022/03/06 15:02:02;;;;;;;11.93;9.57;;;7.30;99.90;;;;;;5075140;28;20477;-73
2022/03/06 15:04:27;;;;;;;11.40;10.32;;;7.40;99.90;;;;;;5074978;28;20227;-71
2022/03/06 15:06:53;;;;;;;10.02;8.88;;;7.30;99.90;;;;;;5073828;28;20172;-71
2022/03/06 15:09:19;;;;;;;11.73;10.23;;;7.00;99.90;;;;;;5075028;28;20168;-73
2022/03/06 15:11:49;;;;;;;10.60;9.60;;;7.00;99.90;;;;;;5075471;28;20203;-74
2022/03/06 15:14:19;;;;;;;10.57;9.55;;;7.00;99.90;;;;;;5074084;28;20599;-74
2022/03/06 15:16:45;;;;;;;11.23;9.70;;;7.10;99.90;;;;;;5073864;28;20222;-74
2022/03/06 15:19:11;;;;;;;9.65;8.57;;;7.30;99.90;;;;;;5075023;28;20614;-73
2022/03/06 15:21:45;;;;;;;12.43;10.35;;;7.40;99.90;;;;;;5075546;28;20179;-75
2022/03/06 15:24:12;;;;;;;11.07;9.45;;;7.40;99.90;;;;;;5075201;28;20229;-75
2022/03/06 15:26:38;;;;;;;9.88;9.05;;;7.20;99.90;;;;;;5073810;28;20172;-74
2022/03/06 15:29:04;;;;;;;10.48;9.15;;;7.00;99.90;;;;;;5074569;28;20160;-73
2022/03/06 15:31:29;;;;;;;9.85;8.95;;;6.80;99.90;;;;;;5074417;28;20597;-73
2022/03/06 15:33:56;;;;;;;9.63;8.48;;;6.60;99.90;;;;;;5074391;28;20172;-73
2022/03/06 15:36:22;;;;;;;9.88;8.77;;;6.40;99.90;;;;;;5074465;28;20164;-73
2022/03/06 15:38:48;;;;;;;8.77;7.88;;;6.10;99.90;;;;;;5074418;28;20647;-74
2022/03/06 15:41:13;;;;;;;11.75;8.85;;;5.80;99.90;;;;;;5074376;28;20255;-73
2022/03/06 15:43:40;;;;;;;12.23;7.80;;;5.80;99.90;;;;;;5074297;28;20176;-73
2022/03/06 15:46:05;;;;;;;9.85;8.75;;;5.90;99.90;;;;;;5072833;28;20254;-73
2022/03/06 15:48:32;;;;;;;9.50;8.55;;;6.00;99.90;;;;;;5072881;28;20165;-73
2022/03/06 15:50:58;;;;;;;10.55;9.43;;;6.10;99.90;;;;;;5074149;28;20574;-73
2022/03/06 15:53:23;;;;;;;9.52;8.52;;;6.30;99.90;;;;;;5074897;28;20226;-73
2022/03/06 15:55:49;;;;;;;8.45;7.70;;;6.30;99.90;;;;;;5076955;28;20524;-73
2022/03/06 15:58:15;;;;;;;8.88;7.97;;;6.10;99.90;;;;;;5074816;28;20176;-73
2022/03/06 16:00:42;;;;;;;9.05;8.15;;;5.80;99.90;;;;;;5074421;28;20157;-73
2022/03/06 16:03:07;;;;;;;9.38;8.25;;;5.60;99.90;;;;;;5074347;28;20248;-73
2022/03/06 16:05:34;;;;;;;9.50;7.68;;;5.40;99.90;;;;;;5074152;28;20288;-73
2022/03/06 16:07:59;;;;;;;9.70;8.73;;;5.30;99.90;;;;;;5074218;28;20157;-73
2022/03/06 16:10:25;;;;;;;11.77;7.63;;;5.10;99.90;;;;;;5073869;28;20575;-73
2022/03/06 16:12:51;;;;;;;13.02;8.57;;;5.10;99.90;;;;;;5074143;28;20694;-73
2022/03/06 16:15:16;;;;;;;9.52;8.55;;;5.20;99.90;;;;;;5073286;28;20673;-73
2022/03/06 16:17:42;;;;;;;11.02;7.70;;;5.30;99.90;;;;;;5074330;28;20168;-73
2022/03/06 16:20:13;;;;;;;8.15;7.25;;;5.50;99.90;;;;;;5076147;28;20648;-73
2022/03/06 16:22:39;;;;;;;8.63;7.53;;;5.50;99.90;;;;;;5074486;28;20178;-73
2022/03/06 16:25:05;;;;;;;6.82;6.32;;;5.60;99.90;;;;;;5072386;28;20196;-73
2022/03/06 16:27:31;;;;;;;7.55;6.90;;;5.60;99.90;;;;;;5076595;28;20165;-72
2022/03/06 16:29:58;;;;;;;11.02;6.60;;;5.30;99.90;;;;;;5076406;28;20167;-73
2022/03/06 16:32:24;;;;;;;7.03;6.43;;;5.20;99.90;;;;;;5075396;28;20583;-72
2022/03/06 16:34:49;;;;;;;7.15;6.32;;;4.90;99.90;;;;;;5072371;28;20185;-73
2022/03/06 16:37:15;;;;;;;8.38;6.30;;;4.70;99.90;;;;;;5072167;28;20207;-73
2022/03/06 16:39:40;;;;;;;7.25;6.55;;;4.50;99.90;;;;;;5071997;28;20199;-73
2022/03/06 16:42:06;;;;;;;7.30;6.45;;;4.50;99.90;;;;;;5074463;28;20178;-72
2022/03/06 16:44:35;;;;;;;6.63;6.03;;;4.50;99.90;;;;;;5074733;28;20192;-72
2022/03/06 16:47:00;;;;;;;8.60;6.90;;;4.50;99.90;;;;;;5073279;28;20172;-73
2022/03/06 16:49:26;;;;;;;9.50;6.57;;;4.50;99.90;;;;;;5073846;28;20199;-73
2022/03/06 16:51:52;;;;;;;6.53;5.93;;;4.50;99.90;;;;;;5074152;28;20172;-73
2022/03/06 16:54:19;;;;;;;6.88;6.18;;;4.50;99.90;;;;;;5072769;28;20634;-73
2022/03/06 16:56:45;;;;;;;7.35;6.20;;;4.50;99.90;;;;;;5074156;28;20168;-73
2022/03/06 16:59:11;;;;;;;8.80;6.25;;;4.40;99.90;;;;;;5073857;28;20243;-73
2022/03/06 17:01:37;;;;;;;6.85;6.15;;;4.40;99.90;;;;;;5072228;28;20253;-73
2022/03/06 17:04:05;;;;;;;8.00;6.13;;;4.30;99.90;;;;;;5072991;28;20188;-73
2022/03/06 17:06:31;;;;;;;6.28;5.78;;;4.20;99.90;;;;;;5073041;28;20192;-73
2022/03/06 17:08:58;;;;;;;6.25;5.72;;;4.00;99.90;;;;;;5071788;28;20196;-73
2022/03/06 17:11:24;;;;;;;6.20;5.70;;;3.90;99.90;;;;;;5073025;28;20172;-73
2022/03/06 17:13:49;;;;;;;6.22;5.60;;;3.80;99.90;;;;;;5071682;28;20173;-73
2022/03/06 17:16:15;;;;;;;6.82;5.97;;;3.70;99.90;;;;;;5072957;28;20532;-73
2022/03/06 17:18:41;;;;;;;6.10;5.70;;;3.50;99.90;;;;;;5072952;28;20243;-73
2022/03/06 17:21:06;;;;;;;5.88;5.35;;;3.40;99.90;;;;;;5073090;28;20546;-73
